CheckWX is a tool to help pilots better visualize weather data.  It is not intended as a substitute for an official pre-flight weather briefing.

06:46:58 UTC

FYRN METAR
Rhino Camp Airport
Rhino Camp, Namibia
Current

47 mins ago

FYRN 210600Z 05003KT CAVOK 14/04 Q1021
Observed
May-21 @ 06:00 UTC
Wind
  • 050° at 3 KTS
Visibility
10,000+ meters
Flight Rules
VFR
Cloud Levels
  • Clear skies
Temperature
14°C / 57°F
Dewpoint
C / 39°F
Humidity
51%
Altimeter
30.15" Hg
Pressure
1020.92 hPa
Previous

2 hours ago

FYRN 210500Z 10005KT CAVOK 13/04 Q1020
Observed
May-21 @ 05:00 UTC
Wind
  • 100° at 5 KTS
Visibility
10,000+ meters
Flight Rules
VFR
Cloud Levels
  • Clear skies
Temperature
13°C / 55°F
Dewpoint
C / 39°F
Humidity
55%
Altimeter
30.12" Hg
Pressure
1019.92 hPa
Previous

4 hours ago

FYRN 210300Z 00000KT CAVOK 15/02 Q1020
Observed
May-21 @ 03:00 UTC
Visibility
10,000+ meters
Flight Rules
VFR
Cloud Levels
  • Clear skies
Temperature
15°C / 59°F
Dewpoint
C / 36°F
Humidity
42%
Altimeter
30.12" Hg
Pressure
1019.92 hPa